sensor_id;sensor_type;location;lat;lon;timestamp;temperature;humidity
7204;DHT22;3643;52.460;13.322;2023-01-29T00:00:03;-0.50;99.90
7204;DHT22;3643;52.460;13.322;2023-01-29T00:02:36;-0.40;99.90
7204;DHT22;3643;52.460;13.322;2023-01-29T00:05:06;-0.40;99.90
7204;DHT22;3643;52.460;13.322;2023-01-29T00:07:52;-0.40;99.90
7204;DHT22;3643;52.460;13.322;2023-01-29T00:10:20;-0.40;99.90
7204;DHT22;3643;52.460;13.322;2023-01-29T00:12:48;-0.40;99.90
7204;DHT22;3643;52.460;13.322;2023-01-29T00:15:17;-0.50;99.90
7204;DHT22;3643;52.460;13.322;2023-01-29T00:17:46;-0.40;99.90
7204;DHT22;3643;52.460;13.322;2023-01-29T00:20:16;-0.40;99.90
7204;DHT22;3643;52.460;13.322;2023-01-29T00:22:45;-0.50;99.90
7204;DHT22;3643;52.460;13.322;2023-01-29T00:25:13;-0.40;99.90
7204;DHT22;3643;52.460;13.322;2023-01-29T00:27:41;-0.40;99.90
7204;DHT22;3643;52.460;13.322;2023-01-29T00:30:11;-0.40;99.90
7204;DHT22;3643;52.460;13.322;2023-01-29T00:32:41;-0.40;99.90
7204;DHT22;3643;52.460;13.322;2023-01-29T00:35:09;-0.30;99.90
7204;DHT22;3643;52.460;13.322;2023-01-29T00:37:39;-0.30;99.90
7204;DHT22;3643;52.460;13.322;2023-01-29T00:40:09;-0.30;99.90
7204;DHT22;3643;52.460;13.322;2023-01-29T00:42:37;-0.30;99.90
7204;DHT22;3643;52.460;13.322;2023-01-29T00:45:23;-0.30;99.90
7204;DHT22;3643;52.460;13.322;2023-01-29T00:47:52;-0.20;99.90
7204;DHT22;3643;52.460;13.322;2023-01-29T00:50:20;-0.20;99.90
7204;DHT22;3643;52.460;13.322;2023-01-29T00:52:50;-0.10;99.90
7204;DHT22;3643;52.460;13.322;2023-01-29T00:55:20;-0.20;99.90
7204;DHT22;3643;52.460;13.322;2023-01-29T00:57:49;-0.20;99.90
7204;DHT22;3643;52.460;13.322;2023-01-29T01:00:18;-0.20;99.90
7204;DHT22;3643;52.460;13.322;2023-01-29T01:02:46;-0.20;99.90
7204;DHT22;3643;52.460;13.322;2023-01-29T01:05:31;-0.10;99.90
7204;DHT22;3643;52.460;13.322;2023-01-29T01:08:01;-0.10;99.90
7204;DHT22;3643;52.460;13.322;2023-01-29T01:10:32;-0.10;99.90
7204;DHT22;3643;52.460;13.322;2023-01-29T01:13:01;-0.10;99.90
7204;DHT22;3643;52.460;13.322;2023-01-29T01:15:32;-0.10;99.90
7204;DHT22;3643;52.460;13.322;2023-01-29T01:18:02;-0.10;99.90
7204;DHT22;3643;52.460;13.322;2023-01-29T01:20:33;-0.10;99.90
7204;DHT22;3643;52.460;13.322;2023-01-29T01:23:03;-0.10;99.90
7204;DHT22;3643;52.460;13.322;2023-01-29T01:25:32;0.00;99.90
7204;DHT22;3643;52.460;13.322;2023-01-29T01:28:00;0.00;99.90
7204;DHT22;3643;52.460;13.322;2023-01-29T01:30:29;-0.10;99.90
7204;DHT22;3643;52.460;13.322;2023-01-29T01:32:59;-0.10;99.90
7204;DHT22;3643;52.460;13.322;2023-01-29T01:35:30;-0.10;99.90
7204;DHT22;3643;52.460;13.322;2023-01-29T01:37:58;0.00;99.90
7204;DHT22;3643;52.460;13.322;2023-01-29T01:40:28;0.00;99.90
7204;DHT22;3643;52.460;13.322;2023-01-29T01:42:58;0.00;99.90
7204;DHT22;3643;52.460;13.322;2023-01-29T01:45:28;-0.10;99.90
7204;DHT22;3643;52.460;13.322;2023-01-29T01:48:01;0.00;99.90
7204;DHT22;3643;52.460;13.322;2023-01-29T01:50:33;0.00;99.90
7204;DHT22;3643;52.460;13.322;2023-01-29T01:53:06;-0.10;99.90
7204;DHT22;3643;52.460;13.322;2023-01-29T01:55:42;0.00;99.90
7204;DHT22;3643;52.460;13.322;2023-01-29T01:58:14;-0.10;99.90
7204;DHT22;3643;52.460;13.322;2023-01-29T02:00:45;0.00;99.90
7204;DHT22;3643;52.460;13.322;2023-01-29T02:03:13;-0.10;99.90
7204;DHT22;3643;52.460;13.322;2023-01-29T02:06:00;0.00;99.90
7204;DHT22;3643;52.460;13.322;2023-01-29T02:08:51;0.00;99.90
7204;DHT22;3643;52.460;13.322;2023-01-29T02:11:40;0.00;99.90
7204;DHT22;3643;52.460;13.322;2023-01-29T02:14:08;0.00;99.90
7204;DHT22;3643;52.460;13.322;2023-01-29T02:16:38;0.00;99.90
7204;DHT22;3643;52.460;13.322;2023-01-29T02:19:12;0.00;99.90
7204;DHT22;3643;52.460;13.322;2023-01-29T02:22:04;0.00;99.90
7204;DHT22;3643;52.460;13.322;2023-01-29T02:25:03;0.00;99.90
7204;DHT22;3643;52.460;13.322;2023-01-29T02:30:40;0.10;99.90
7204;DHT22;3643;52.460;13.322;2023-01-29T02:33:18;0.00;99.90
7204;DHT22;3643;52.460;13.322;2023-01-29T02:35:55;0.00;99.90
7204;DHT22;3643;52.460;13.322;2023-01-29T02:38:32;0.00;99.90
7204;DHT22;3643;52.460;13.322;2023-01-29T02:41:08;0.00;99.90
7204;DHT22;3643;52.460;13.322;2023-01-29T02:43:43;0.00;99.90
7204;DHT22;3643;52.460;13.322;2023-01-29T02:46:20;0.00;99.90
7204;DHT22;3643;52.460;13.322;2023-01-29T02:48:56;0.00;99.90
7204;DHT22;3643;52.460;13.322;2023-01-29T02:51:32;0.00;99.90
7204;DHT22;3643;52.460;13.322;2023-01-29T02:54:06;0.00;99.90
7204;DHT22;3643;52.460;13.322;2023-01-29T02:56:39;0.10;99.90
7204;DHT22;3643;52.460;13.322;2023-01-29T02:59:11;0.10;99.90
7204;DHT22;3643;52.460;13.322;2023-01-29T03:01:47;0.10;99.90
7204;DHT22;3643;52.460;13.322;2023-01-29T03:04:23;0.10;99.90
7204;DHT22;3643;52.460;13.322;2023-01-29T03:06:56;0.10;99.90
7204;DHT22;3643;52.460;13.322;2023-01-29T03:09:30;0.10;99.90
7204;DHT22;3643;52.460;13.322;2023-01-29T03:12:06;0.10;99.90
7204;DHT22;3643;52.460;13.322;2023-01-29T03:14:57;0.10;99.90
7204;DHT22;3643;52.460;13.322;2023-01-29T03:17:46;0.20;99.90
7204;DHT22;3643;52.460;13.322;2023-01-29T03:20:18;0.20;99.90
7204;DHT22;3643;52.460;13.322;2023-01-29T03:22:56;0.20;99.90
7204;DHT22;3643;52.460;13.322;2023-01-29T03:25:27;0.20;99.90
7204;DHT22;3643;52.460;13.322;2023-01-29T03:28:15;0.20;99.90
7204;DHT22;3643;52.460;13.322;2023-01-29T03:31:04;0.20;99.90
7204;DHT22;3643;52.460;13.322;2023-01-29T03:33:57;0.20;99.90
7204;DHT22;3643;52.460;13.322;2023-01-29T03:36:31;0.20;99.90
7204;DHT22;3643;52.460;13.322;2023-01-29T03:39:04;0.20;99.90
7204;DHT22;3643;52.460;13.322;2023-01-29T03:41:36;0.20;99.90
7204;DHT22;3643;52.460;13.322;2023-01-29T03:44:11;0.20;99.90
7204;DHT22;3643;52.460;13.322;2023-01-29T03:46:49;0.20;99.90
7204;DHT22;3643;52.460;13.322;2023-01-29T03:49:31;0.20;99.90
7204;DHT22;3643;52.460;13.322;2023-01-29T03:52:11;0.20;99.90
7204;DHT22;3643;52.460;13.322;2023-01-29T03:54:51;0.20;99.90
7204;DHT22;3643;52.460;13.322;2023-01-29T03:57:27;0.20;99.90
7204;DHT22;3643;52.460;13.322;2023-01-29T04:00:03;0.20;99.90
7204;DHT22;3643;52.460;13.322;2023-01-29T04:02:39;0.20;99.90
7204;DHT22;3643;52.460;13.322;2023-01-29T04:05:16;0.20;99.90
7204;DHT22;3643;52.460;13.322;2023-01-29T04:07:50;0.20;99.90
7204;DHT22;3643;52.460;13.322;2023-01-29T04:10:23;0.20;99.90
7204;DHT22;3643;52.460;13.322;2023-01-29T04:12:55;0.20;99.90
7204;DHT22;3643;52.460;13.322;2023-01-29T04:15:28;0.20;99.90
7204;DHT22;3643;52.460;13.322;2023-01-29T04:17:57;0.20;99.90
7204;DHT22;3643;52.460;13.322;2023-01-29T04:20:28;0.20;99.90
7204;DHT22;3643;52.460;13.322;2023-01-29T04:22:57;0.20;99.90
7204;DHT22;3643;52.460;13.322;2023-01-29T04:25:27;0.20;99.90
7204;DHT22;3643;52.460;13.322;2023-01-29T04:28:04;0.20;99.90
7204;DHT22;3643;52.460;13.322;2023-01-29T04:30:45;0.20;99.90
7204;DHT22;3643;52.460;13.322;2023-01-29T04:33:26;0.20;99.90
7204;DHT22;3643;52.460;13.322;2023-01-29T04:36:20;0.20;99.90
7204;DHT22;3643;52.460;13.322;2023-01-29T04:39:01;0.20;99.90
7204;DHT22;3643;52.460;13.322;2023-01-29T04:41:35;0.20;99.90
7204;DHT22;3643;52.460;13.322;2023-01-29T04:44:10;0.20;99.90
7204;DHT22;3643;52.460;13.322;2023-01-29T04:46:46;0.20;99.90
7204;DHT22;3643;52.460;13.322;2023-01-29T04:49:28;0.20;99.90
7204;DHT22;3643;52.460;13.322;2023-01-29T04:52:03;0.20;99.90
7204;DHT22;3643;52.460;13.322;2023-01-29T04:54:46;0.20;99.90
7204;DHT22;3643;52.460;13.322;2023-01-29T04:57:20;0.20;99.90
7204;DHT22;3643;52.460;13.322;2023-01-29T04:59:56;0.20;99.90
7204;DHT22;3643;52.460;13.322;2023-01-29T05:02:28;0.20;99.90
7204;DHT22;3643;52.460;13.322;2023-01-29T05:04:59;0.20;99.90
7204;DHT22;3643;52.460;13.322;2023-01-29T05:07:30;0.20;99.90
7204;DHT22;3643;52.460;13.322;2023-01-29T05:10:00;0.20;99.90
7204;DHT22;3643;52.460;13.322;2023-01-29T05:12:30;0.20;99.90
7204;DHT22;3643;52.460;13.322;2023-01-29T05:15:02;0.10;99.90
7204;DHT22;3643;52.460;13.322;2023-01-29T05:17:31;0.10;99.90
7204;DHT22;3643;52.460;13.322;2023-01-29T05:20:00;0.10;99.90
7204;DHT22;3643;52.460;13.322;2023-01-29T05:22:30;0.10;99.90
7204;DHT22;3643;52.460;13.322;2023-01-29T05:24:58;0.10;99.90
7204;DHT22;3643;52.460;13.322;2023-01-29T05:27:31;0.10;99.90
7204;DHT22;3643;52.460;13.322;2023-01-29T05:30:19;0.10;99.90
7204;DHT22;3643;52.460;13.322;2023-01-29T05:32:47;0.10;99.90
7204;DHT22;3643;52.460;13.322;2023-01-29T05:35:15;0.10;99.90
7204;DHT22;3643;52.460;13.322;2023-01-29T05:37:45;0.10;99.90
7204;DHT22;3643;52.460;13.322;2023-01-29T05:40:14;0.10;99.90
7204;DHT22;3643;52.460;13.322;2023-01-29T05:42:42;0.10;99.90
7204;DHT22;3643;52.460;13.322;2023-01-29T05:45:11;0.40;99.90
7204;DHT22;3643;52.460;13.322;2023-01-29T05:47:39;0.10;99.90
7204;DHT22;3643;52.460;13.322;2023-01-29T05:50:08;0.10;99.90
7204;DHT22;3643;52.460;13.322;2023-01-29T05:52:36;0.10;99.90
7204;DHT22;3643;52.460;13.322;2023-01-29T05:55:07;0.30;99.90
7204;DHT22;3643;52.460;13.322;2023-01-29T05:57:35;0.10;99.90
7204;DHT22;3643;52.460;13.322;2023-01-29T06:00:03;0.20;99.90
7204;DHT22;3643;52.460;13.322;2023-01-29T06:02:32;0.10;99.90
7204;DHT22;3643;52.460;13.322;2023-01-29T06:05:00;0.20;99.90
7204;DHT22;3643;52.460;13.322;2023-01-29T06:07:28;0.10;99.90
7204;DHT22;3643;52.460;13.322;2023-01-29T06:09:56;0.20;99.90
7204;DHT22;3643;52.460;13.322;2023-01-29T06:12:25;0.20;99.90
7204;DHT22;3643;52.460;13.322;2023-01-29T06:14:53;0.20;99.90
7204;DHT22;3643;52.460;13.322;2023-01-29T06:17:21;0.20;99.90
7204;DHT22;3643;52.460;13.322;2023-01-29T06:19:49;0.20;99.90
7204;DHT22;3643;52.460;13.322;2023-01-29T06:22:17;0.20;99.90
7204;DHT22;3643;52.460;13.322;2023-01-29T06:24:45;0.30;99.90
7204;DHT22;3643;52.460;13.322;2023-01-29T06:27:13;0.30;99.90
7204;DHT22;3643;52.460;13.322;2023-01-29T06:29:43;0.30;99.90
7204;DHT22;3643;52.460;13.322;2023-01-29T06:32:11;0.40;99.90
7204;DHT22;3643;52.460;13.322;2023-01-29T06:34:39;0.30;99.90
7204;DHT22;3643;52.460;13.322;2023-01-29T06:37:07;0.30;99.90
7204;DHT22;3643;52.460;13.322;2023-01-29T06:39:35;0.30;99.90
7204;DHT22;3643;52.460;13.322;2023-01-29T06:42:03;0.30;99.90
7204;DHT22;3643;52.460;13.322;2023-01-29T06:44:31;0.40;99.90
7204;DHT22;3643;52.460;13.322;2023-01-29T06:47:00;0.60;99.90
7204;DHT22;3643;52.460;13.322;2023-01-29T06:49:28;0.40;99.90
7204;DHT22;3643;52.460;13.322;2023-01-29T06:51:56;0.40;99.90
7204;DHT22;3643;52.460;13.322;2023-01-29T06:54:25;0.40;99.90
7204;DHT22;3643;52.460;13.322;2023-01-29T06:56:53;0.40;99.90
7204;DHT22;3643;52.460;13.322;2023-01-29T06:59:21;0.40;99.90
7204;DHT22;3643;52.460;13.322;2023-01-29T07:01:49;0.40;99.90
7204;DHT22;3643;52.460;13.322;2023-01-29T07:04:19;0.40;99.90
7204;DHT22;3643;52.460;13.322;2023-01-29T07:06:47;0.40;99.90
7204;DHT22;3643;52.460;13.322;2023-01-29T07:09:15;0.40;99.90
7204;DHT22;3643;52.460;13.322;2023-01-29T07:11:43;0.50;99.90
7204;DHT22;3643;52.460;13.322;2023-01-29T07:14:11;0.50;99.90
7204;DHT22;3643;52.460;13.322;2023-01-29T07:16:39;0.50;99.90
7204;DHT22;3643;52.460;13.322;2023-01-29T07:19:07;0.50;99.90
7204;DHT22;3643;52.460;13.322;2023-01-29T07:21:36;0.50;99.90
7204;DHT22;3643;52.460;13.322;2023-01-29T07:24:05;0.50;99.90
7204;DHT22;3643;52.460;13.322;2023-01-29T07:26:33;0.50;99.90
7204;DHT22;3643;52.460;13.322;2023-01-29T07:29:03;0.50;99.90
7204;DHT22;3643;52.460;13.322;2023-01-29T07:31:31;0.50;99.90
7204;DHT22;3643;52.460;13.322;2023-01-29T07:33:59;0.50;99.90
7204;DHT22;3643;52.460;13.322;2023-01-29T07:36:27;0.60;99.90
7204;DHT22;3643;52.460;13.322;2023-01-29T07:38:57;0.60;99.90
7204;DHT22;3643;52.460;13.322;2023-01-29T07:41:25;0.60;99.90
7204;DHT22;3643;52.460;13.322;2023-01-29T07:43:53;0.60;99.90
7204;DHT22;3643;52.460;13.322;2023-01-29T07:46:21;0.60;99.90
7204;DHT22;3643;52.460;13.322;2023-01-29T07:48:49;0.60;99.90
7204;DHT22;3643;52.460;13.322;2023-01-29T07:51:17;0.70;99.90
7204;DHT22;3643;52.460;13.322;2023-01-29T07:53:47;0.70;99.90
7204;DHT22;3643;52.460;13.322;2023-01-29T07:56:16;0.60;99.90
7204;DHT22;3643;52.460;13.322;2023-01-29T07:58:44;0.80;99.90
7204;DHT22;3643;52.460;13.322;2023-01-29T08:01:12;0.60;99.90
7204;DHT22;3643;52.460;13.322;2023-01-29T08:03:40;0.60;99.90
7204;DHT22;3643;52.460;13.322;2023-01-29T08:06:09;0.60;99.90
7204;DHT22;3643;52.460;13.322;2023-01-29T08:08:37;0.70;99.90
7204;DHT22;3643;52.460;13.322;2023-01-29T08:11:05;0.70;99.90
7204;DHT22;3643;52.460;13.322;2023-01-29T08:13:35;0.90;99.90
7204;DHT22;3643;52.460;13.322;2023-01-29T08:16:03;0.70;99.90
7204;DHT22;3643;52.460;13.322;2023-01-29T08:18:31;0.70;99.90
7204;DHT22;3643;52.460;13.322;2023-01-29T08:21:00;0.70;99.90
7204;DHT22;3643;52.460;13.322;2023-01-29T08:23:29;0.70;99.90
7204;DHT22;3643;52.460;13.322;2023-01-29T08:25:57;0.70;99.90
7204;DHT22;3643;52.460;13.322;2023-01-29T08:28:25;0.70;99.90
7204;DHT22;3643;52.460;13.322;2023-01-29T08:30:55;0.80;99.90
7204;DHT22;3643;52.460;13.322;2023-01-29T08:33:23;0.70;99.90
7204;DHT22;3643;52.460;13.322;2023-01-29T08:36:05;0.70;99.90
7204;DHT22;3643;52.460;13.322;2023-01-29T08:38:33;0.80;99.90
7204;DHT22;3643;52.460;13.322;2023-01-29T08:41:01;0.80;99.90
7204;DHT22;3643;52.460;13.322;2023-01-29T08:43:29;0.90;99.90
7204;DHT22;3643;52.460;13.322;2023-01-29T08:45:59;1.00;99.90
7204;DHT22;3643;52.460;13.322;2023-01-29T08:48:28;1.00;99.90
7204;DHT22;3643;52.460;13.322;2023-01-29T08:50:56;1.10;99.90
7204;DHT22;3643;52.460;13.322;2023-01-29T08:53:25;1.10;99.90
7204;DHT22;3643;52.460;13.322;2023-01-29T08:55:53;1.10;99.90
7204;DHT22;3643;52.460;13.322;2023-01-29T08:58:21;1.00;99.90
7204;DHT22;3643;52.460;13.322;2023-01-29T09:00:49;1.00;99.90
7204;DHT22;3643;52.460;13.322;2023-01-29T09:03:19;1.00;99.90
7204;DHT22;3643;52.460;13.322;2023-01-29T09:05:47;1.00;99.90
7204;DHT22;3643;52.460;13.322;2023-01-29T09:08:15;1.10;99.90
7204;DHT22;3643;52.460;13.322;2023-01-29T09:10:44;1.10;99.90
7204;DHT22;3643;52.460;13.322;2023-01-29T09:13:12;1.10;99.90
7204;DHT22;3643;52.460;13.322;2023-01-29T09:15:40;1.10;99.90
7204;DHT22;3643;52.460;13.322;2023-01-29T09:18:08;1.20;99.90
7204;DHT22;3643;52.460;13.322;2023-01-29T09:20:37;1.20;99.90
7204;DHT22;3643;52.460;13.322;2023-01-29T09:23:07;1.30;99.90
7204;DHT22;3643;52.460;13.322;2023-01-29T09:25:36;1.30;99.90
7204;DHT22;3643;52.460;13.322;2023-01-29T09:28:04;1.40;99.90
7204;DHT22;3643;52.460;13.322;2023-01-29T09:30:33;1.50;99.90
7204;DHT22;3643;52.460;13.322;2023-01-29T09:33:03;1.50;99.90
7204;DHT22;3643;52.460;13.322;2023-01-29T09:35:32;1.50;99.90
7204;DHT22;3643;52.460;13.322;2023-01-29T09:38:02;1.60;99.90
7204;DHT22;3643;52.460;13.322;2023-01-29T09:40:34;1.70;99.90
7204;DHT22;3643;52.460;13.322;2023-01-29T09:43:09;1.70;99.90
7204;DHT22;3643;52.460;13.322;2023-01-29T09:45:44;1.60;99.90
7204;DHT22;3643;52.460;13.322;2023-01-29T09:48:17;1.70;99.90
7204;DHT22;3643;52.460;13.322;2023-01-29T09:50:48;1.70;99.90
7204;DHT22;3643;52.460;13.322;2023-01-29T09:53:22;1.70;99.90
7204;DHT22;3643;52.460;13.322;2023-01-29T09:55:55;1.80;99.90
7204;DHT22;3643;52.460;13.322;2023-01-29T09:58:29;2.00;99.90
7204;DHT22;3643;52.460;13.322;2023-01-29T10:01:07;2.20;99.90
7204;DHT22;3643;52.460;13.322;2023-01-29T10:07:09;2.40;99.90
7204;DHT22;3643;52.460;13.322;2023-01-29T10:10:06;2.40;99.90
7204;DHT22;3643;52.460;13.322;2023-01-29T10:12:50;2.50;99.90
7204;DHT22;3643;52.460;13.322;2023-01-29T10:15:33;2.80;99.90
7204;DHT22;3643;52.460;13.322;2023-01-29T10:18:22;2.80;99.90
7204;DHT22;3643;52.460;13.322;2023-01-29T10:21:00;2.90;99.90
7204;DHT22;3643;52.460;13.322;2023-01-29T10:23:32;2.80;99.90
7204;DHT22;3643;52.460;13.322;2023-01-29T10:26:03;2.80;99.90
7204;DHT22;3643;52.460;13.322;2023-01-29T10:28:35;2.70;99.90
7204;DHT22;3643;52.460;13.322;2023-01-29T10:31:07;2.80;99.90
7204;DHT22;3643;52.460;13.322;2023-01-29T10:33:40;2.90;99.90
7204;DHT22;3643;52.460;13.322;2023-01-29T10:36:22;3.00;99.90
7204;DHT22;3643;52.460;13.322;2023-01-29T10:38:53;3.00;99.90
7204;DHT22;3643;52.460;13.322;2023-01-29T10:41:40;3.00;99.90
7204;DHT22;3643;52.460;13.322;2023-01-29T10:44:19;3.10;99.90
7204;DHT22;3643;52.460;13.322;2023-01-29T10:47:04;3.30;99.90
7204;DHT22;3643;52.460;13.322;2023-01-29T10:49:59;3.50;99.90
7204;DHT22;3643;52.460;13.322;2023-01-29T10:52:41;3.60;99.90
7204;DHT22;3643;52.460;13.322;2023-01-29T10:55:21;3.90;99.90
7204;DHT22;3643;52.460;13.322;2023-01-29T10:58:01;3.90;99.90
7204;DHT22;3643;52.460;13.322;2023-01-29T11:00:36;4.00;99.90
7204;DHT22;3643;52.460;13.322;2023-01-29T11:03:16;4.10;99.90
7204;DHT22;3643;52.460;13.322;2023-01-29T11:05:58;4.20;99.90
7204;DHT22;3643;52.460;13.322;2023-01-29T11:08:32;4.20;99.90
7204;DHT22;3643;52.460;13.322;2023-01-29T11:11:06;4.00;99.90
7204;DHT22;3643;52.460;13.322;2023-01-29T11:13:41;3.90;99.90
7204;DHT22;3643;52.460;13.322;2023-01-29T11:16:10;4.10;99.90
7204;DHT22;3643;52.460;13.322;2023-01-29T11:18:54;4.10;99.90
7204;DHT22;3643;52.460;13.322;2023-01-29T11:21:24;4.10;99.90
7204;DHT22;3643;52.460;13.322;2023-01-29T11:24:08;3.90;99.90
7204;DHT22;3643;52.460;13.322;2023-01-29T11:26:39;4.00;99.90
7204;DHT22;3643;52.460;13.322;2023-01-29T11:29:36;4.20;99.90
7204;DHT22;3643;52.460;13.322;2023-01-29T11:32:07;4.30;99.90
7204;DHT22;3643;52.460;13.322;2023-01-29T11:34:57;4.40;99.90
7204;DHT22;3643;52.460;13.322;2023-01-29T11:37:32;4.60;99.90
7204;DHT22;3643;52.460;13.322;2023-01-29T11:40:01;4.40;99.90
7204;DHT22;3643;52.460;13.322;2023-01-29T11:42:49;4.50;99.90
7204;DHT22;3643;52.460;13.322;2023-01-29T11:45:26;4.30;99.90
7204;DHT22;3643;52.460;13.322;2023-01-29T11:47:56;4.50;99.90
7204;DHT22;3643;52.460;13.322;2023-01-29T11:50:27;4.60;99.90
7204;DHT22;3643;52.460;13.322;2023-01-29T11:52:58;4.60;99.90
7204;DHT22;3643;52.460;13.322;2023-01-29T11:55:29;4.60;99.90
7204;DHT22;3643;52.460;13.322;2023-01-29T11:58:17;4.50;99.90
7204;DHT22;3643;52.460;13.322;2023-01-29T12:00:50;4.20;99.90
7204;DHT22;3643;52.460;13.322;2023-01-29T12:03:24;3.90;99.90
7204;DHT22;3643;52.460;13.322;2023-01-29T12:05:58;4.00;99.90
7204;DHT22;3643;52.460;13.322;2023-01-29T12:08:30;4.20;99.90
7204;DHT22;3643;52.460;13.322;2023-01-29T12:11:07;4.20;99.90
7204;DHT22;3643;52.460;13.322;2023-01-29T12:13:36;4.30;99.90
7204;DHT22;3643;52.460;13.322;2023-01-29T12:16:17;4.40;99.90
7204;DHT22;3643;52.460;13.322;2023-01-29T12:18:50;4.50;99.90
7204;DHT22;3643;52.460;13.322;2023-01-29T12:21:26;4.70;99.90
7204;DHT22;3643;52.460;13.322;2023-01-29T12:23:59;4.70;99.90
7204;DHT22;3643;52.460;13.322;2023-01-29T12:26:30;4.50;99.90
7204;DHT22;3643;52.460;13.322;2023-01-29T12:29:30;4.40;99.90
7204;DHT22;3643;52.460;13.322;2023-01-29T12:32:06;4.40;99.90
7204;DHT22;3643;52.460;13.322;2023-01-29T12:34:44;4.30;99.90
7204;DHT22;3643;52.460;13.322;2023-01-29T12:37:19;4.30;99.90
7204;DHT22;3643;52.460;13.322;2023-01-29T12:39:48;4.20;99.90
7204;DHT22;3643;52.460;13.322;2023-01-29T12:42:20;4.20;99.90
7204;DHT22;3643;52.460;13.322;2023-01-29T12:44:51;4.30;99.90
7204;DHT22;3643;52.460;13.322;2023-01-29T12:47:28;4.30;99.90
7204;DHT22;3643;52.460;13.322;2023-01-29T12:50:02;4.20;99.90
7204;DHT22;3643;52.460;13.322;2023-01-29T12:52:38;4.30;99.90
7204;DHT22;3643;52.460;13.322;2023-01-29T12:55:14;4.10;99.90
7204;DHT22;3643;52.460;13.322;2023-01-29T12:57:47;4.00;99.90
7204;DHT22;3643;52.460;13.322;2023-01-29T13:00:20;4.00;99.90
7204;DHT22;3643;52.460;13.322;2023-01-29T13:02:55;3.90;99.90
7204;DHT22;3643;52.460;13.322;2023-01-29T13:05:27;3.90;99.90
7204;DHT22;3643;52.460;13.322;2023-01-29T13:08:00;3.90;99.90
7204;DHT22;3643;52.460;13.322;2023-01-29T13:10:35;3.90;99.90
7204;DHT22;3643;52.460;13.322;2023-01-29T13:13:09;3.80;99.90
7204;DHT22;3643;52.460;13.322;2023-01-29T13:15:41;3.70;99.90
7204;DHT22;3643;52.460;13.322;2023-01-29T13:18:31;4.30;99.90
7204;DHT22;3643;52.460;13.322;2023-01-29T13:21:04;3.70;99.90
7204;DHT22;3643;52.460;13.322;2023-01-29T13:23:35;3.70;99.90
7204;DHT22;3643;52.460;13.322;2023-01-29T13:26:05;3.80;99.90
7204;DHT22;3643;52.460;13.322;2023-01-29T13:28:33;3.80;99.90
7204;DHT22;3643;52.460;13.322;2023-01-29T13:31:15;3.80;99.90
7204;DHT22;3643;52.460;13.322;2023-01-29T13:33:54;3.80;99.90
7204;DHT22;3643;52.460;13.322;2023-01-29T13:36:26;3.80;99.90
7204;DHT22;3643;52.460;13.322;2023-01-29T13:39:00;3.80;99.90
7204;DHT22;3643;52.460;13.322;2023-01-29T13:41:36;3.80;99.90
7204;DHT22;3643;52.460;13.322;2023-01-29T13:44:08;3.80;99.90
7204;DHT22;3643;52.460;13.322;2023-01-29T13:46:48;3.70;99.90
7204;DHT22;3643;52.460;13.322;2023-01-29T13:49:26;3.70;99.90
7204;DHT22;3643;52.460;13.322;2023-01-29T13:51:56;3.60;99.90
7204;DHT22;3643;52.460;13.322;2023-01-29T13:54:26;3.50;99.90
7204;DHT22;3643;52.460;13.322;2023-01-29T13:56:59;3.30;99.90
7204;DHT22;3643;52.460;13.322;2023-01-29T13:59:49;3.40;99.90
7204;DHT22;3643;52.460;13.322;2023-01-29T14:02:23;3.40;99.90
7204;DHT22;3643;52.460;13.322;2023-01-29T14:08:04;3.40;99.90
7204;DHT22;3643;52.460;13.322;2023-01-29T14:10:34;3.40;99.90
7204;DHT22;3643;52.460;13.322;2023-01-29T14:13:25;3.30;99.90
7204;DHT22;3643;52.460;13.322;2023-01-29T14:16:31;3.30;99.90
7204;DHT22;3643;52.460;13.322;2023-01-29T14:19:01;3.30;99.90
7204;DHT22;3643;52.460;13.322;2023-01-29T14:21:33;3.20;99.90
7204;DHT22;3643;52.460;13.322;2023-01-29T14:24:10;3.00;99.90
7204;DHT22;3643;52.460;13.322;2023-01-29T14:26:43;3.00;99.90
7204;DHT22;3643;52.460;13.322;2023-01-29T14:29:18;3.00;99.90
7204;DHT22;3643;52.460;13.322;2023-01-29T14:32:10;3.00;99.90
7204;DHT22;3643;52.460;13.322;2023-01-29T14:34:43;2.90;99.90
7204;DHT22;3643;52.460;13.322;2023-01-29T14:37:23;2.90;99.90
7204;DHT22;3643;52.460;13.322;2023-01-29T14:39:55;2.80;99.90
7204;DHT22;3643;52.460;13.322;2023-01-29T14:42:28;2.80;99.90
7204;DHT22;3643;52.460;13.322;2023-01-29T14:44:58;2.80;99.90
7204;DHT22;3643;52.460;13.322;2023-01-29T14:47:56;2.70;99.90
7204;DHT22;3643;52.460;13.322;2023-01-29T14:50:49;2.80;99.90
7204;DHT22;3643;52.460;13.322;2023-01-29T14:53:23;2.80;99.90
7204;DHT22;3643;52.460;13.322;2023-01-29T14:55:57;2.80;99.90
7204;DHT22;3643;52.460;13.322;2023-01-29T14:58:38;2.70;99.90
7204;DHT22;3643;52.460;13.322;2023-01-29T15:01:17;2.60;99.90
7204;DHT22;3643;52.460;13.322;2023-01-29T15:03:48;2.50;99.90
7204;DHT22;3643;52.460;13.322;2023-01-29T15:06:24;2.40;99.90
7204;DHT22;3643;52.460;13.322;2023-01-29T15:09:03;2.50;99.90
7204;DHT22;3643;52.460;13.322;2023-01-29T15:11:39;2.50;99.90
7204;DHT22;3643;52.460;13.322;2023-01-29T15:14:18;2.50;99.90
7204;DHT22;3643;52.460;13.322;2023-01-29T15:17:13;2.40;99.90
7204;DHT22;3643;52.460;13.322;2023-01-29T15:19:45;2.40;99.90
7204;DHT22;3643;52.460;13.322;2023-01-29T15:22:15;1.90;99.90
7204;DHT22;3643;52.460;13.322;2023-01-29T15:24:47;2.30;99.90
7204;DHT22;3643;52.460;13.322;2023-01-29T15:27:28;2.30;99.90
7204;DHT22;3643;52.460;13.322;2023-01-29T15:29:59;2.20;99.90
7204;DHT22;3643;52.460;13.322;2023-01-29T15:32:32;2.20;99.90
7204;DHT22;3643;52.460;13.322;2023-01-29T15:35:06;2.20;99.90
7204;DHT22;3643;52.460;13.322;2023-01-29T15:37:35;2.20;99.90
7204;DHT22;3643;52.460;13.322;2023-01-29T15:40:12;2.20;99.90
7204;DHT22;3643;52.460;13.322;2023-01-29T15:42:43;2.20;99.90
7204;DHT22;3643;52.460;13.322;2023-01-29T15:45:22;2.20;99.90
7204;DHT22;3643;52.460;13.322;2023-01-29T15:47:52;2.10;99.90
7204;DHT22;3643;52.460;13.322;2023-01-29T15:50:22;2.10;99.90
7204;DHT22;3643;52.460;13.322;2023-01-29T15:52:51;2.10;99.90
7204;DHT22;3643;52.460;13.322;2023-01-29T15:55:23;2.10;99.90
7204;DHT22;3643;52.460;13.322;2023-01-29T15:57:51;2.10;99.90
7204;DHT22;3643;52.460;13.322;2023-01-29T16:00:22;2.10;99.90
7204;DHT22;3643;52.460;13.322;2023-01-29T16:02:52;2.10;99.90
7204;DHT22;3643;52.460;13.322;2023-01-29T16:05:22;2.10;99.90
7204;DHT22;3643;52.460;13.322;2023-01-29T16:07:54;2.00;99.90
7204;DHT22;3643;52.460;13.322;2023-01-29T16:10:25;2.10;99.90
7204;DHT22;3643;52.460;13.322;2023-01-29T16:12:54;2.10;99.90
7204;DHT22;3643;52.460;13.322;2023-01-29T16:15:28;2.10;99.90
7204;DHT22;3643;52.460;13.322;2023-01-29T16:17:58;2.10;99.90
7204;DHT22;3643;52.460;13.322;2023-01-29T16:20:36;2.00;99.90
7204;DHT22;3643;52.460;13.322;2023-01-29T16:23:05;2.00;99.90
7204;DHT22;3643;52.460;13.322;2023-01-29T16:25:37;2.00;99.90
7204;DHT22;3643;52.460;13.322;2023-01-29T16:28:06;2.00;99.90
7204;DHT22;3643;52.460;13.322;2023-01-29T16:30:37;2.00;99.90
7204;DHT22;3643;52.460;13.322;2023-01-29T16:33:10;2.00;99.90
7204;DHT22;3643;52.460;13.322;2023-01-29T16:35:39;2.00;99.90
7204;DHT22;3643;52.460;13.322;2023-01-29T16:38:23;2.00;99.90
7204;DHT22;3643;52.460;13.322;2023-01-29T16:41:12;2.00;99.90
7204;DHT22;3643;52.460;13.322;2023-01-29T16:43:49;2.00;99.90
7204;DHT22;3643;52.460;13.322;2023-01-29T16:51:47;2.00;99.90
7204;DHT22;3643;52.460;13.322;2023-01-29T16:54:15;2.00;99.90